Date,TemperatureHighF,TemperatureAvgF,TemperatureLowF,DewpointHighF,DewpointAvgF,DewpointLowF,HumidityHigh,HumidityAvg,HumidityLow,PressureMaxIn,PressureMinIn,WindSpeedMaxMPH,WindSpeedAvgMPH,GustSpeedMaxMPH,PrecipitationSumIn
2013-9-1,68.0,62.8,53.2,63.8,58.2,50.3,90,85,76,29.98,29.74,7,1,14,0.01
2013-9-2,69.9,57.8,45.8,58.1,51.2,43.0,91,80,61,30.09,29.98,11,1,13,0.00
2013-9-3,79.5,63.4,47.2,67.7,56.8,44.4,90,80,58,30.05,29.93,9,1,10,0.01
2013-9-4,84.4,71.4,57.6,72.4,64.6,54.1,88,80,63,30.07,29.96,8,1,12,0.01
2013-9-5,85.5,72.8,60.6,70.2,64.1,56.1,85,75,54,30.12,29.99,11,3,15,0.00
2013-9-6,91.5,77.4,65.1,73.3,67.4,60.5,85,73,53,29.99,29.75,14,3,23,0.00
2013-9-7,90.0,77.7,64.6,72.9,68.3,60.7,87,74,51,29.92,29.77,12,2,17,0.00
2013-9-8,75.0,68.8,63.6,67.8,63.1,58.7,85,82,76,29.96,29.79,13,4,16,0.01
2013-9-9,90.7,75.3,65.9,75.9,67.6,61.3,86,78,55,29.79,29.55,12,3,19,0.24
2013-9-10,84.1,72.1,64.3,67.9,63.1,59.0,84,74,49,29.93,29.72,10,2,15,0.06
2013-9-11,86.0,70.4,57.6,66.4,57.8,51.1,84,67,36,30.06,29.92,7,1,10,0.00
2013-9-12,75.7,61.0,47.9,57.7,50.1,43.3,85,70,41,30.20,30.05,11,2,19,0.00
2013-9-13,71.9,59.7,46.7,52.2,47.7,42.0,84,67,42,30.24,30.01,9,2,13,0.00
2013-9-14,64.9,55.4,47.0,56.0,49.9,42.4,84,82,67,30.02,29.80,13,3,20,0.39
2013-9-15,67.7,58.2,47.7,56.5,51.6,43.1,84,79,60,30.28,29.82,14,4,20,0.30
2013-9-16,66.5,54.1,43.5,51.3,46.0,39.0,85,75,51,30.37,30.17,11,2,15,0.01
2013-9-17,63.2,55.9,47.5,56.9,50.5,42.7,84,82,79,30.18,29.86,16,6,22,0.01
2013-9-18,84.2,70.3,58.7,73.7,63.4,52.9,82,79,68,29.85,29.55,15,5,19,0.00
2013-9-19,74.9,68.0,58.2,65.2,60.6,52.2,81,77,60,29.82,29.54,20,2,29,1.09
2013-9-20,60.1,55.0,45.5,52.9,48.9,40.3,83,80,67,29.94,29.80,10,2,19,0.01
2013-9-21,67.7,51.8,38.3,50.3,43.2,33.3,83,74,46,30.01,29.86,8,1,12,0.00
2013-9-22,81.8,62.8,48.8,58.4,51.5,43.5,82,69,42,29.89,29.69,17,7,27,0.00
2013-9-23,76.5,64.6,54.4,56.2,53.1,48.7,81,68,45,29.82,29.72,20,8,27,0.00
2013-9-24,72.2,59.0,51.5,57.8,51.5,45.9,82,77,57,29.91,29.82,8,2,13,0.00
2013-9-25,75.9,62.1,50.1,57.5,51.6,44.5,82,70,46,29.90,29.74,15,4,21,0.00
2013-9-26,84.1,69.5,57.6,62.2,58.1,51.7,81,69,46,29.79,29.66,23,9,35,0.00
2013-9-27,78.5,71.5,65.0,68.6,62.9,58.3,80,75,63,29.75,29.64,22,6,26,0.29
2013-9-28,74.0,58.5,47.1,63.3,50.6,41.9,82,75,54,29.88,29.55,15,4,27,0.40
2013-9-29,79.0,60.3,43.8,51.5,45.5,38.7,82,62,32,29.91,29.65,15,3,22,0.00
2013-9-30,81.4,67.4,55.7,54.5,50.9,46.8,74,57,36,29.66,29.48,15,4,19,0.00